createdAt,value
2022-10-17T00:02:08.485Z,59.78
2022-10-17T00:04:37.441Z,59.20
2022-10-17T00:07:06.616Z,61.72
2022-10-17T00:09:35.550Z,58.42
2022-10-17T00:12:04.761Z,62.00
2022-10-17T00:14:33.819Z,57.70
2022-10-17T00:17:02.904Z,59.33
2022-10-17T00:19:32.029Z,58.92
2022-10-17T00:22:01.416Z,57.03
2022-10-17T00:24:32.788Z,60.85
2022-10-17T00:27:02.089Z,58.97
2022-10-17T00:29:31.044Z,57.97
2022-10-17T00:32:00.244Z,58.20
2022-10-17T00:34:30.758Z,59.65
2022-10-17T00:37:00.363Z,62.53
2022-10-17T00:39:29.267Z,63.55
2022-10-17T00:41:58.632Z,61.58
2022-10-17T00:44:33.619Z,59.28
2022-10-17T00:47:09.126Z,64.65
2022-10-17T00:49:40.251Z,63.67
2022-10-17T00:52:22.791Z,61.67
2022-10-17T00:55:07.431Z,59.33
2022-10-17T00:57:37.341Z,59.25
2022-10-17T01:00:16.840Z,61.45
2022-10-17T01:02:49.781Z,58.50
2022-10-17T01:05:25.001Z,56.55
2022-10-17T01:07:56.194Z,59.33
2022-10-17T01:10:58.726Z,61.08
2022-10-17T01:13:51.434Z,65.00
2022-10-17T01:16:30.410Z,62.13
2022-10-17T01:19:38.703Z,65.30
2022-10-17T01:22:32.311Z,62.90
2022-10-17T01:25:36.893Z,60.67
2022-10-17T01:28:34.749Z,62.38
2022-10-17T01:31:25.839Z,64.60
2022-10-17T01:34:06.868Z,59.38
2022-10-17T01:36:43.432Z,67.80
2022-10-17T01:39:45.341Z,69.78
2022-10-17T01:42:21.394Z,69.40
2022-10-17T01:45:14.455Z,75.22
2022-10-17T01:47:44.550Z,75.70
2022-10-17T01:50:25.760Z,74.90
2022-10-17T01:53:10.323Z,75.35
2022-10-17T01:55:43.792Z,75.70
2022-10-17T01:58:28.708Z,69.97
2022-10-17T02:01:03.447Z,77.63
2022-10-17T02:03:36.040Z,76.38
2022-10-17T02:06:08.302Z,78.55
2022-10-17T02:08:50.051Z,83.00
2022-10-17T02:11:28.370Z,76.40
2022-10-17T02:14:27.649Z,82.22
2022-10-17T02:17:22.110Z,89.05
2022-10-17T02:19:54.871Z,92.25
2022-10-17T02:22:32.820Z,102.90
2022-10-17T02:25:16.770Z,105.65
2022-10-17T02:27:59.690Z,106.13
2022-10-17T02:30:47.766Z,116.07
2022-10-17T02:33:33.757Z,118.53
2022-10-17T02:36:10.557Z,118.70
2022-10-17T02:38:42.619Z,117.43
2022-10-17T02:41:18.406Z,117.55
2022-10-17T02:43:51.107Z,113.30
2022-10-17T02:46:24.974Z,115.10
2022-10-17T02:49:02.249Z,125.13
2022-10-17T02:51:43.536Z,128.63
2022-10-17T02:54:30.604Z,134.88
2022-10-17T02:57:08.635Z,132.35
2022-10-17T02:59:43.317Z,136.88
2022-10-17T03:02:14.954Z,137.25
2022-10-17T03:04:49.186Z,142.65
2022-10-17T03:07:19.686Z,131.77
2022-10-17T03:09:49.511Z,127.10
2022-10-17T03:12:19.665Z,116.80
2022-10-17T03:14:49.400Z,116.22
2022-10-17T03:17:19.677Z,112.50
2022-10-17T03:19:50.481Z,110.90
2022-10-17T03:22:20.773Z,107.25
2022-10-17T03:24:50.554Z,105.97
2022-10-17T03:27:20.076Z,104.32
2022-10-17T03:29:49.701Z,107.20
2022-10-17T03:32:20.473Z,105.22
2022-10-17T03:34:50.946Z,103.47
2022-10-17T03:37:20.604Z,109.20
2022-10-17T03:39:52.114Z,102.03
2022-10-17T03:42:22.338Z,105.57
2022-10-17T03:44:52.030Z,107.85
2022-10-17T03:47:22.253Z,107.30
2022-10-17T03:49:54.794Z,109.20
2022-10-17T03:52:25.134Z,106.65
2022-10-17T03:54:54.999Z,111.00
2022-10-17T03:57:24.509Z,105.72
2022-10-17T03:59:55.911Z,104.72
2022-10-17T04:02:26.175Z,99.65
2022-10-17T04:04:56.244Z,98.00
2022-10-17T04:09:56.730Z,86.53
2022-10-17T04:12:26.806Z,87.50
2022-10-17T04:14:57.950Z,82.90
2022-10-17T04:17:28.083Z,81.75
2022-10-17T04:19:58.094Z,84.30
2022-10-17T04:22:28.775Z,80.60
2022-10-17T04:24:59.741Z,80.18
2022-10-17T04:27:37.699Z,77.30
2022-10-17T04:30:09.658Z,77.63
2022-10-17T04:32:42.063Z,71.70
2022-10-17T04:35:15.845Z,73.22
2022-10-17T04:37:49.489Z,69.20
2022-10-17T04:40:20.631Z,72.32
2022-10-17T04:42:50.726Z,73.32
2022-10-17T04:45:23.345Z,75.05
2022-10-17T04:47:57.725Z,71.70
2022-10-17T04:50:27.120Z,72.30
2022-10-17T04:53:14.479Z,71.88
2022-10-17T04:55:43.654Z,71.40
2022-10-17T04:58:12.798Z,69.85
2022-10-17T05:00:42.636Z,66.53
2022-10-17T05:03:23.806Z,64.40
2022-10-17T05:05:53.110Z,65.30
2022-10-17T05:08:22.250Z,59.58
2022-10-17T05:10:52.635Z,57.72
2022-10-17T05:13:21.832Z,62.03
2022-10-17T05:15:50.783Z,56.40
2022-10-17T05:18:20.224Z,47.92
2022-10-17T05:20:53.812Z,44.00
2022-10-17T05:57:39.298Z,33.88
2022-10-17T06:00:13.296Z,33.03
2022-10-17T06:02:43.748Z,32.67
2022-10-17T06:05:16.622Z,32.88
2022-10-17T06:07:46.580Z,30.60
2022-10-17T06:10:19.656Z,30.80
2022-10-17T06:12:49.973Z,29.77
2022-10-17T06:15:19.375Z,26.58
2022-10-17T06:17:54.897Z,27.48
2022-10-17T06:20:24.318Z,38.00
2022-10-17T06:22:53.254Z,29.67
2022-10-17T06:25:36.015Z,28.48
2022-10-17T06:28:05.853Z,27.80
2022-10-17T06:30:34.792Z,27.48
2022-10-17T06:33:04.039Z,22.33
2022-10-17T06:35:33.247Z,24.73
2022-10-17T06:38:04.665Z,26.42
2022-10-17T06:40:35.120Z,25.92
2022-10-17T06:43:04.924Z,24.52
2022-10-17T06:45:52.148Z,24.02
2022-10-17T06:48:33.929Z,17.98
2022-10-17T06:51:32.469Z,18.30
2022-10-17T06:54:04.030Z,18.63
2022-10-17T06:56:48.506Z,19.70
2022-10-17T06:59:36.285Z,21.10
2022-10-17T07:02:12.593Z,22.02
2022-10-17T07:04:41.840Z,22.00
2022-10-17T07:07:18.434Z,21.20
2022-10-17T07:09:48.136Z,20.20
2022-10-17T07:12:18.653Z,20.02
2022-10-17T07:14:48.731Z,19.85
2022-10-17T07:17:19.767Z,20.45
2022-10-17T07:19:49.742Z,20.88
2022-10-17T07:22:18.789Z,21.92
2022-10-17T07:27:25.433Z,22.60
2022-10-17T07:29:54.762Z,22.08
2022-10-17T07:32:55.362Z,20.80
2022-10-17T07:35:24.618Z,22.50
2022-10-17T07:37:53.805Z,23.58
2022-10-17T07:40:23.844Z,22.23
2022-10-17T07:42:54.662Z,23.02
2022-10-17T07:45:24.958Z,21.88
2022-10-17T07:47:58.660Z,21.42
2022-10-17T07:50:28.223Z,21.90
2022-10-17T07:53:15.464Z,23.40
2022-10-17T07:55:49.231Z,23.15
2022-10-17T07:58:18.518Z,23.58
2022-10-17T08:00:49.578Z,24.45
2022-10-17T08:03:20.628Z,26.80
2022-10-17T08:06:26.153Z,27.55
2022-10-17T08:08:55.571Z,26.40
2022-10-17T08:11:44.877Z,26.13
2022-10-17T08:14:15.353Z,28.40
2022-10-17T08:16:44.944Z,27.65
2022-10-17T08:19:14.082Z,26.83
2022-10-17T08:21:45.172Z,25.55
2022-10-17T08:24:14.412Z,25.67
2022-10-17T08:26:44.029Z,23.42
2022-10-17T08:29:17.176Z,23.42
2022-10-17T08:31:47.893Z,23.55
2022-10-17T08:34:18.348Z,26.90
2022-10-17T08:37:05.659Z,21.83
2022-10-17T08:39:35.479Z,21.52
2022-10-17T08:42:25.633Z,25.08
2022-10-17T08:45:01.244Z,26.08
2022-10-17T08:47:46.810Z,24.98
2022-10-17T08:50:37.816Z,23.17
2022-10-17T08:53:21.570Z,23.45
2022-10-17T08:55:52.538Z,24.17
2022-10-17T08:58:32.460Z,21.10
2022-10-17T09:01:23.780Z,20.73
2022-10-17T09:04:17.399Z,21.90
2022-10-17T09:07:07.273Z,20.35
2022-10-17T09:10:02.438Z,18.23
2022-10-17T09:12:39.122Z,17.98
2022-10-17T09:15:41.658Z,20.08
2022-10-17T09:18:26.897Z,21.38
2022-10-17T09:20:59.437Z,21.52
2022-10-17T09:23:56.062Z,19.08
2022-10-17T09:26:33.245Z,23.73
2022-10-17T09:29:03.284Z,20.75
2022-10-17T09:31:42.340Z,18.05
2022-10-17T09:34:12.663Z,19.75
2022-10-17T09:36:43.555Z,18.60
2022-10-17T09:39:22.815Z,18.42
2022-10-17T09:41:53.798Z,21.02
2022-10-17T09:44:26.955Z,18.08
2022-10-17T09:47:28.561Z,18.63
2022-10-17T09:49:59.105Z,18.23
2022-10-17T09:52:37.740Z,18.75
2022-10-17T09:55:09.192Z,20.63
2022-10-17T09:58:00.696Z,19.55
2022-10-17T10:00:41.903Z,18.75
2022-10-17T10:03:28.369Z,19.17
2022-10-17T10:06:19.880Z,18.20
2022-10-17T10:08:56.200Z,21.45
2022-10-17T10:11:59.373Z,19.50
2022-10-17T10:14:37.266Z,19.13
2022-10-17T10:17:08.777Z,18.38
2022-10-17T10:19:39.950Z,17.42
2022-10-17T10:22:20.634Z,21.70
2022-10-17T10:25:17.846Z,18.30
2022-10-17T10:27:48.858Z,23.00
2022-10-17T10:30:20.396Z,20.25
2022-10-17T10:32:51.438Z,20.02
2022-10-17T10:35:31.903Z,21.48
2022-10-17T10:38:03.386Z,21.45
2022-10-17T10:40:48.809Z,21.37
2022-10-17T10:43:47.889Z,19.73
2022-10-17T10:46:24.081Z,22.23
2022-10-17T10:48:57.536Z,22.40
2022-10-17T10:51:37.520Z,20.45
2022-10-17T10:54:12.006Z,21.75
2022-10-17T10:56:47.688Z,22.23
2022-10-17T10:59:20.832Z,20.80
2022-10-17T11:02:06.035Z,19.70
2022-10-17T11:04:42.176Z,19.73
2022-10-17T11:07:40.055Z,20.85
2022-10-17T11:10:32.366Z,19.30
2022-10-17T11:13:13.857Z,17.48
2022-10-17T11:16:24.713Z,21.52
2022-10-17T11:19:17.159Z,19.95
2022-10-17T11:21:59.237Z,21.00
2022-10-17T11:24:42.580Z,20.02
2022-10-17T11:27:12.693Z,21.15
2022-10-17T11:29:43.468Z,19.85
2022-10-17T11:32:18.923Z,22.45
2022-10-17T11:34:52.649Z,22.70
2022-10-17T11:37:31.037Z,20.45
2022-10-17T11:40:08.201Z,22.35
2022-10-17T11:42:54.422Z,17.40
2022-10-17T11:45:26.385Z,17.35
2022-10-17T11:48:03.731Z,17.02
2022-10-17T11:53:32.458Z,19.10
2022-10-17T11:56:03.178Z,40.70
2022-10-17T11:58:43.337Z,24.10
2022-10-17T12:01:19.042Z,22.83
2022-10-17T12:04:09.626Z,21.48
2022-10-17T12:07:17.244Z,22.48
2022-10-17T12:10:16.297Z,30.25
2022-10-17T12:12:45.287Z,24.52
2022-10-17T12:15:26.348Z,25.65
2022-10-17T12:18:04.085Z,31.95
2022-10-17T12:20:40.234Z,29.05
2022-10-17T12:23:15.008Z,28.77
2022-10-17T12:26:05.475Z,30.77
2022-10-17T12:28:46.985Z,30.70
2022-10-17T12:31:29.883Z,29.38
2022-10-17T12:34:06.443Z,30.48
2022-10-17T12:36:35.616Z,30.85
2022-10-17T12:39:04.279Z,31.70
2022-10-17T12:41:42.423Z,33.53
2022-10-17T12:44:23.234Z,30.20
2022-10-17T12:46:58.892Z,33.22
2022-10-17T12:49:43.243Z,33.90
2022-10-17T12:52:38.469Z,35.05
2022-10-17T12:55:20.246Z,36.10
2022-10-17T12:58:03.147Z,41.85
2022-10-17T13:01:25.266Z,43.97
2022-10-17T13:03:49.400Z,44.95
2022-10-17T13:06:24.962Z,42.80
2022-10-17T13:09:19.000Z,44.10
2022-10-17T13:11:51.287Z,41.85
2022-10-17T13:14:23.140Z,40.00
2022-10-17T13:16:53.738Z,42.40
2022-10-17T13:19:26.208Z,45.08
2022-10-17T13:22:06.830Z,39.70
2022-10-17T13:24:38.894Z,43.55
2022-10-17T13:27:31.901Z,44.42
2022-10-17T13:30:03.336Z,44.83
2022-10-17T13:32:41.659Z,44.05
2022-10-17T13:35:18.316Z,45.97
2022-10-17T13:37:53.690Z,46.53
2022-10-17T13:40:49.203Z,46.38
2022-10-17T13:43:22.810Z,49.35
2022-10-17T13:46:09.112Z,47.63
2022-10-17T13:48:48.252Z,46.90
2022-10-17T13:51:17.184Z,43.78
2022-10-17T13:53:46.483Z,38.40
2022-10-17T13:56:33.435Z,37.58
2022-10-17T13:59:12.830Z,35.05
2022-10-17T14:01:42.183Z,39.58
2022-10-17T14:04:19.564Z,36.22
2022-10-17T14:06:52.247Z,36.40
2022-10-17T14:09:30.074Z,35.75
2022-10-17T14:12:14.122Z,38.20
2022-10-17T14:15:09.248Z,37.20
2022-10-17T14:17:39.621Z,36.97
2022-10-17T14:23:22.099Z,37.97
2022-10-17T14:26:15.722Z,36.72
2022-10-17T14:28:47.873Z,33.85
2022-10-17T14:31:33.744Z,36.20
2022-10-17T14:34:05.744Z,34.30
2022-10-17T14:36:38.931Z,35.88
2022-10-17T14:39:20.195Z,36.97
2022-10-17T14:41:50.757Z,35.40
2022-10-17T14:44:31.331Z,38.50
2022-10-17T14:47:30.806Z,35.38
2022-10-17T14:50:26.703Z,35.78
2022-10-17T14:53:21.842Z,37.40
2022-10-17T14:56:03.414Z,36.75
2022-10-17T14:58:34.882Z,37.83
2022-10-17T15:01:03.885Z,38.55
2022-10-17T15:03:32.762Z,40.15
2022-10-17T15:06:18.946Z,38.15
2022-10-17T15:08:48.212Z,39.65
2022-10-17T15:11:17.130Z,39.47
2022-10-17T15:13:46.816Z,39.90
2022-10-17T15:16:20.859Z,41.60
2022-10-17T15:18:50.779Z,40.70
2022-10-17T15:21:40.832Z,42.42
2022-10-17T15:24:11.618Z,43.03
2022-10-17T15:26:40.614Z,44.63
2022-10-17T15:29:16.230Z,44.22
2022-10-17T15:31:45.510Z,44.05
2022-10-17T15:34:14.207Z,46.35
2022-10-17T15:36:49.606Z,52.95
2022-10-17T15:39:18.873Z,51.53
2022-10-17T15:41:49.026Z,49.63
2022-10-17T15:44:18.446Z,48.60
2022-10-17T15:46:47.473Z,45.67
2022-10-17T15:49:19.546Z,47.45
2022-10-17T15:51:51.728Z,47.55
2022-10-17T15:54:24.478Z,48.30
2022-10-17T15:56:56.192Z,45.08
2022-10-17T15:59:32.416Z,45.75
2022-10-17T16:02:01.431Z,48.38
2022-10-17T16:04:31.756Z,48.92
2022-10-17T16:07:01.091Z,46.42
2022-10-17T16:09:30.906Z,46.20
2022-10-17T16:12:02.008Z,52.28
2022-10-17T16:14:32.672Z,46.53
2022-10-17T16:17:02.014Z,48.92
2022-10-17T16:19:31.185Z,48.53
2022-10-17T16:22:04.455Z,49.78
2022-10-17T16:24:34.398Z,50.95
2022-10-17T16:27:03.200Z,49.42
2022-10-17T16:29:32.550Z,50.70
2022-10-17T16:32:01.393Z,55.30
2022-10-17T16:34:31.787Z,50.60
2022-10-17T16:37:00.930Z,55.15
2022-10-17T16:39:30.475Z,55.08
2022-10-17T16:41:59.978Z,58.03
2022-10-17T16:44:28.734Z,54.25
2022-10-17T16:46:58.609Z,56.22
2022-10-17T16:49:27.434Z,55.20
2022-10-17T16:51:56.508Z,57.25
2022-10-17T16:54:25.377Z,57.72
2022-10-17T16:56:54.571Z,56.10
2022-10-17T16:59:23.547Z,53.90
2022-10-17T17:01:52.642Z,54.08
2022-10-17T17:04:22.109Z,56.63
2022-10-17T17:06:51.100Z,56.78
2022-10-17T17:09:20.463Z,56.17
2022-10-17T17:11:49.724Z,61.75
2022-10-17T17:14:18.481Z,62.00
2022-10-17T17:16:47.691Z,64.05
2022-10-17T17:19:19.907Z,82.50
2022-10-17T17:21:51.854Z,160.80
2022-10-17T17:24:22.503Z,96.47
2022-10-17T17:26:56.866Z,74.97
2022-10-17T17:29:26.509Z,59.55
2022-10-17T17:31:55.279Z,61.20
2022-10-17T17:34:24.586Z,62.30
2022-10-17T17:36:53.324Z,58.42
2022-10-17T17:39:22.446Z,55.63
2022-10-17T17:41:51.343Z,60.33
2022-10-17T17:44:20.456Z,57.33
2022-10-17T17:46:49.368Z,56.75
2022-10-17T17:49:18.504Z,56.72
2022-10-17T17:51:47.465Z,56.13
2022-10-17T17:54:16.664Z,56.03
2022-10-17T17:56:45.777Z,52.42
2022-10-17T17:59:15.141Z,56.45
2022-10-17T18:01:44.926Z,56.30
2022-10-17T18:04:14.676Z,54.25
2022-10-17T18:06:43.628Z,53.70
2022-10-17T18:09:12.710Z,54.03
2022-10-17T18:11:41.695Z,54.22
2022-10-17T18:14:14.668Z,53.63
2022-10-17T18:16:43.851Z,51.92
2022-10-17T18:19:13.240Z,53.95
2022-10-17T18:21:42.319Z,54.65
2022-10-17T18:24:11.322Z,52.92
2022-10-17T18:26:40.458Z,53.17
2022-10-17T18:29:09.502Z,53.00
2022-10-17T18:31:38.669Z,53.55
2022-10-17T18:34:07.826Z,56.42
2022-10-17T18:36:38.504Z,55.28
2022-10-17T18:39:07.686Z,55.95
2022-10-17T18:41:36.790Z,56.35
2022-10-17T18:44:06.058Z,56.50
2022-10-17T18:46:41.347Z,58.22
2022-10-17T18:49:13.649Z,57.40
2022-10-17T18:51:43.761Z,55.45
2022-10-17T18:54:18.129Z,54.78
2022-10-17T18:56:47.943Z,54.80
2022-10-17T18:59:17.342Z,55.88
2022-10-17T19:01:46.745Z,56.75
2022-10-17T19:04:16.222Z,54.63
2022-10-17T19:06:45.676Z,55.40
2022-10-17T19:09:16.083Z,53.85
2022-10-17T19:11:45.522Z,55.55
2022-10-17T19:14:15.160Z,52.28
2022-10-17T19:16:47.891Z,53.38
2022-10-17T19:21:48.332Z,52.35
2022-10-17T19:24:23.821Z,51.97
2022-10-17T19:26:54.889Z,52.28
2022-10-17T19:29:26.853Z,53.38
2022-10-17T19:34:30.354Z,56.70
2022-10-17T19:36:59.692Z,55.58
2022-10-17T19:39:29.207Z,59.33
2022-10-17T19:41:59.379Z,56.85
2022-10-17T19:44:29.236Z,55.92
2022-10-17T19:46:57.974Z,56.13
2022-10-17T19:49:27.088Z,55.20
2022-10-17T19:51:55.920Z,57.97
2022-10-17T19:54:25.427Z,58.72
2022-10-17T19:56:55.470Z,59.30
2022-10-17T20:01:54.519Z,60.42
2022-10-17T20:04:25.208Z,56.72
2022-10-17T20:06:54.993Z,60.83
2022-10-17T20:09:26.550Z,59.90
2022-10-17T20:11:55.827Z,58.60
2022-10-17T20:14:24.626Z,61.90
2022-10-17T20:16:54.839Z,62.53
2022-10-17T20:19:23.716Z,60.17
2022-10-17T20:21:52.855Z,62.88
2022-10-17T20:24:21.662Z,62.65
2022-10-17T20:26:50.841Z,60.90
2022-10-17T20:29:22.674Z,61.88
2022-10-17T20:31:51.997Z,60.83
2022-10-17T20:34:21.233Z,62.90
2022-10-17T20:36:50.718Z,67.53
2022-10-17T20:39:21.366Z,66.88
2022-10-17T20:41:50.551Z,67.68
2022-10-17T20:44:19.754Z,68.30
2022-10-17T20:47:01.088Z,71.53
2022-10-17T20:49:31.474Z,67.50
2022-10-17T20:52:01.810Z,72.60
2022-10-17T20:54:31.174Z,70.03
2022-10-17T20:57:02.630Z,68.93
2022-10-17T20:59:37.057Z,66.15
2022-10-17T21:02:07.002Z,66.35
2022-10-17T21:04:51.474Z,69.05
2022-10-17T21:07:20.676Z,71.78
2022-10-17T21:09:49.676Z,71.22
2022-10-17T21:12:26.244Z,76.15
2022-10-17T21:15:06.832Z,71.00
2022-10-17T21:17:35.779Z,70.70
2022-10-17T21:20:05.359Z,69.20
2022-10-17T21:22:37.359Z,71.70
2022-10-17T21:25:06.754Z,72.40
2022-10-17T21:27:35.868Z,69.90
2022-10-17T21:30:05.222Z,74.15
2022-10-17T21:32:51.098Z,75.60
2022-10-17T21:35:21.109Z,80.18
2022-10-17T21:37:50.070Z,80.18
2022-10-17T21:40:19.204Z,86.30
2022-10-17T21:42:48.024Z,80.63
2022-10-17T21:45:25.374Z,79.93
2022-10-17T21:48:12.287Z,82.68
2022-10-17T21:50:42.441Z,86.03
2022-10-17T21:53:11.499Z,80.50
2022-10-17T21:55:40.659Z,79.07
2022-10-17T21:58:09.497Z,81.97
2022-10-17T22:00:38.672Z,83.35
2022-10-17T22:03:08.362Z,84.80
2022-10-17T22:05:37.494Z,89.57
2022-10-17T22:08:06.628Z,82.82
2022-10-17T22:10:38.617Z,82.50
2022-10-17T22:13:07.759Z,87.30
2022-10-17T22:15:36.538Z,83.65
2022-10-17T22:18:06.357Z,80.13
2022-10-17T22:20:36.747Z,78.82
2022-10-17T22:23:05.805Z,78.43
2022-10-17T22:25:34.787Z,85.82
2022-10-17T22:28:03.932Z,86.07
2022-10-17T22:30:32.698Z,88.47
2022-10-17T22:33:01.745Z,88.05
2022-10-17T22:35:30.565Z,92.15
2022-10-17T22:37:59.673Z,89.28
2022-10-17T22:40:28.729Z,91.78
2022-10-17T22:42:58.466Z,91.50
2022-10-17T22:45:27.368Z,87.68
2022-10-17T22:47:56.431Z,90.97
2022-10-17T22:50:26.182Z,87.10
2022-10-17T22:52:55.478Z,87.85
2022-10-17T22:55:24.508Z,86.88
2022-10-17T22:57:53.740Z,87.93
2022-10-17T23:00:22.594Z,89.30
2022-10-17T23:02:55.730Z,92.93
2022-10-17T23:05:24.715Z,93.53
2022-10-17T23:07:53.591Z,93.15
2022-10-17T23:10:23.125Z,93.53
2022-10-17T23:12:52.078Z,87.82
2022-10-17T23:15:21.395Z,84.18
2022-10-17T23:17:50.596Z,86.20
2022-10-17T23:20:19.872Z,83.10
2022-10-17T23:22:48.753Z,84.90
2022-10-17T23:25:18.552Z,81.15
2022-10-17T23:27:47.415Z,81.30
2022-10-17T23:30:17.386Z,77.38
2022-10-17T23:32:46.660Z,80.25
2022-10-17T23:35:15.846Z,78.82
2022-10-17T23:37:44.641Z,79.22
2022-10-17T23:40:14.489Z,82.43
2022-10-17T23:42:43.751Z,75.10
2022-10-17T23:45:13.461Z,76.35
2022-10-17T23:47:42.648Z,80.10
2022-10-17T23:50:11.838Z,76.88
2022-10-17T23:52:40.933Z,77.13
2022-10-17T23:55:10.765Z,78.90
2022-10-17T23:57:39.529Z,77.32
